createdAt,value
2018-09-11T00:00:04.284Z,3.60
2018-09-11T00:01:04.276Z,4.10
2018-09-11T00:02:04.260Z,4.30
2018-09-11T00:03:04.284Z,4.40
2018-09-11T00:04:04.244Z,4.30
2018-09-11T00:05:04.264Z,4.30
2018-09-11T00:06:04.222Z,4.30
2018-09-11T00:07:04.202Z,4.30
2018-09-11T00:08:04.198Z,4.40
2018-09-11T00:09:04.226Z,4.90
2018-09-11T00:10:04.170Z,5.20
2018-09-11T00:11:04.178Z,5.50
2018-09-11T00:12:04.146Z,5.20
2018-09-11T00:13:04.142Z,5.40
2018-09-11T00:14:04.154Z,5.30
2018-09-11T00:15:04.120Z,5.80
2018-09-11T00:16:04.138Z,5.70
2018-09-11T00:17:04.094Z,4.50
2018-09-11T00:18:04.099Z,5.60
2018-09-11T00:19:04.074Z,5.90
2018-09-11T00:20:04.119Z,5.80
2018-09-11T00:21:04.094Z,5.40
2018-09-11T00:22:04.049Z,5.60
2018-09-11T00:23:04.048Z,5.80
2018-09-11T00:24:04.020Z,5.10
2018-09-11T00:25:04.015Z,5.50
2018-09-11T00:26:04.045Z,5.30
2018-09-11T00:27:03.984Z,6.10
2018-09-11T00:28:03.981Z,5.50
2018-09-11T00:29:03.966Z,5.60
2018-09-11T00:30:03.965Z,5.50
2018-09-11T00:31:03.982Z,5.60
2018-09-11T00:32:03.944Z,5.50
2018-09-11T00:33:03.922Z,5.60
2018-09-11T00:34:03.921Z,5.10
2018-09-11T00:35:03.899Z,5.60
2018-09-11T00:36:03.921Z,5.50
2018-09-11T00:37:03.883Z,5.70
2018-09-11T00:38:03.869Z,5.60
2018-09-11T00:39:03.889Z,5.40
2018-09-11T00:40:03.849Z,5.30
2018-09-11T00:41:03.826Z,5.60
2018-09-11T00:42:03.856Z,6.00
2018-09-11T00:43:03.822Z,6.30
2018-09-11T00:44:03.799Z,5.70
2018-09-11T00:45:03.790Z,5.90
2018-09-11T00:46:03.774Z,5.70
2018-09-11T00:47:03.806Z,6.40
2018-09-11T00:48:03.756Z,5.70
2018-09-11T00:49:03.748Z,5.80
2018-09-11T00:50:03.724Z,5.90
2018-09-11T00:51:03.712Z,5.60
2018-09-11T00:52:03.756Z,6.10
2018-09-11T00:53:03.686Z,5.30
2018-09-11T00:54:03.686Z,5.30
2018-09-11T00:55:03.676Z,5.20
2018-09-11T00:56:03.656Z,5.40
2018-09-11T00:57:03.680Z,5.50
2018-09-11T00:58:03.631Z,6.00
2018-09-11T00:59:03.630Z,5.70
2018-09-11T01:00:03.614Z,6.10
2018-09-11T01:01:03.600Z,5.80
2018-09-11T01:02:03.630Z,5.90
2018-09-11T01:03:03.624Z,5.80
2018-09-11T01:04:03.573Z,5.80
2018-09-11T01:05:03.554Z,6.00
2018-09-11T01:06:03.550Z,5.60
2018-09-11T01:07:03.542Z,6.10
2018-09-11T01:08:03.556Z,6.00
2018-09-11T01:09:03.520Z,5.50
2018-09-11T01:10:03.520Z,5.70
2018-09-11T01:11:03.482Z,5.80
2018-09-11T01:12:03.526Z,5.40
2018-09-11T01:13:03.459Z,6.20
2018-09-11T01:14:03.486Z,5.70
2018-09-11T01:15:03.446Z,5.80
2018-09-11T01:16:03.430Z,6.00
2018-09-11T01:17:03.421Z,6.30
2018-09-11T01:18:03.410Z,5.90
2018-09-11T01:19:03.432Z,6.00
2018-09-11T01:20:03.380Z,6.00
2018-09-11T01:21:03.382Z,6.10
2018-09-11T01:22:03.382Z,6.00
2018-09-11T01:23:03.391Z,5.60
2018-09-11T01:24:03.386Z,6.40
2018-09-11T01:25:03.336Z,6.30
2018-09-11T01:26:03.326Z,6.10
2018-09-11T01:27:03.318Z,6.20
2018-09-11T01:28:03.336Z,5.80
2018-09-11T01:29:03.308Z,5.60
2018-09-11T01:30:03.320Z,5.70
2018-09-11T01:31:03.278Z,5.80
2018-09-11T01:32:03.266Z,6.30
2018-09-11T01:33:03.257Z,5.80
2018-09-11T01:34:03.276Z,5.60
2018-09-11T01:35:03.271Z,5.80
2018-09-11T01:36:03.225Z,5.70
2018-09-11T01:37:03.208Z,5.90
2018-09-11T01:38:03.198Z,5.90
2018-09-11T01:39:03.230Z,5.70
2018-09-11T01:40:03.173Z,5.60
2018-09-11T01:41:03.159Z,5.40
2018-09-11T01:42:03.152Z,5.30
2018-09-11T01:43:03.136Z,5.60
2018-09-11T01:44:03.179Z,5.50
2018-09-11T01:45:03.111Z,5.50
2018-09-11T01:46:03.114Z,5.10
2018-09-11T01:47:03.097Z,5.00
2018-09-11T01:48:03.085Z,5.40
2018-09-11T01:49:03.120Z,5.30
2018-09-11T01:50:03.093Z,5.90
2018-09-11T01:51:03.061Z,5.70
2018-09-11T01:52:03.057Z,5.70
2018-09-11T01:53:03.034Z,5.90
2018-09-11T01:54:03.012Z,5.40
2018-09-11T01:55:03.025Z,6.00
2018-09-11T01:56:02.988Z,5.50
2018-09-11T01:57:02.972Z,5.90
2018-09-11T01:58:02.966Z,5.10
2018-09-11T01:59:02.981Z,5.70
2018-09-11T02:00:02.983Z,5.60
2018-09-11T02:01:02.934Z,5.30
2018-09-11T02:02:02.916Z,5.50
2018-09-11T02:03:02.908Z,5.80
2018-09-11T02:04:02.897Z,6.10
2018-09-11T02:05:02.927Z,5.70
2018-09-11T02:06:02.885Z,5.70
2018-09-11T02:07:02.863Z,6.00
2018-09-11T02:08:02.854Z,5.70
2018-09-11T02:09:02.838Z,5.50
2018-09-11T02:10:02.870Z,5.70
2018-09-11T02:11:02.824Z,6.00
2018-09-11T02:12:02.809Z,5.90
2018-09-11T02:13:02.796Z,5.90
2018-09-11T02:14:02.785Z,5.70
2018-09-11T02:15:02.819Z,5.20
2018-09-11T02:16:02.767Z,5.70
2018-09-11T02:17:02.750Z,5.50
2018-09-11T02:18:02.746Z,5.40
2018-09-11T02:19:02.730Z,6.10
2018-09-11T02:20:02.755Z,5.90
2018-09-11T02:21:02.708Z,5.40
2018-09-11T02:22:02.694Z,5.80
2018-09-11T02:23:02.689Z,5.70
2018-09-11T02:24:02.682Z,5.80
2018-09-11T02:25:02.710Z,5.60
2018-09-11T02:26:02.659Z,5.30
2018-09-11T02:27:02.651Z,5.70
2018-09-11T02:28:02.639Z,5.40
2018-09-11T02:29:02.625Z,5.70
2018-09-11T02:30:02.672Z,5.40
2018-09-11T02:31:02.617Z,5.60
2018-09-11T02:32:02.595Z,5.70
2018-09-11T02:33:02.583Z,5.60
2018-09-11T02:34:02.567Z,5.50
2018-09-11T02:35:02.591Z,5.60
2018-09-11T02:36:02.549Z,6.40
2018-09-11T02:37:02.579Z,5.40
2018-09-11T02:38:02.529Z,5.80
2018-09-11T02:39:02.514Z,5.60
2018-09-11T02:40:02.507Z,5.60
2018-09-11T02:41:02.493Z,5.50
2018-09-11T02:42:02.527Z,5.60
2018-09-11T02:43:02.473Z,5.40
2018-09-11T02:44:02.457Z,5.70
2018-09-11T02:45:02.457Z,5.50
2018-09-11T02:46:02.439Z,5.40
2018-09-11T02:47:02.460Z,5.80
2018-09-11T02:48:02.419Z,5.30
2018-09-11T02:49:02.400Z,5.30
2018-09-11T02:50:02.391Z,5.30
2018-09-11T02:51:02.383Z,5.30
2018-09-11T02:52:02.407Z,5.40
2018-09-11T02:53:02.392Z,5.50
2018-09-11T02:54:02.342Z,5.70
2018-09-11T02:55:02.339Z,5.60
2018-09-11T02:56:02.332Z,5.60
2018-09-11T02:57:02.316Z,5.30
2018-09-11T02:58:02.326Z,5.30
2018-09-11T02:59:02.281Z,5.80
2018-09-11T03:00:02.317Z,5.40
2018-09-11T03:01:02.263Z,5.80
2018-09-11T03:02:02.251Z,5.30
2018-09-11T03:03:02.248Z,5.50
2018-09-11T03:04:02.226Z,5.10
2018-09-11T03:05:02.252Z,5.30
2018-09-11T03:06:02.206Z,5.50
2018-09-11T03:07:02.188Z,5.20
2018-09-11T03:08:02.184Z,5.30
2018-09-11T03:09:02.172Z,5.70
2018-09-11T03:10:02.292Z,5.50
2018-09-11T03:11:02.146Z,5.30
2018-09-11T03:12:02.143Z,5.80
2018-09-11T03:13:02.122Z,5.30
2018-09-11T03:14:02.123Z,5.50
2018-09-11T03:15:02.147Z,5.70
2018-09-11T03:16:02.096Z,5.30
2018-09-11T03:17:02.096Z,5.80
2018-09-11T03:18:02.078Z,6.20
2018-09-11T03:19:02.156Z,5.40
2018-09-11T03:20:02.087Z,5.50
2018-09-11T03:21:02.051Z,5.50
2018-09-11T03:22:02.044Z,5.80
2018-09-11T03:23:02.028Z,5.90
2018-09-11T03:24:02.017Z,6.00
2018-09-11T03:25:02.047Z,6.40
2018-09-11T03:26:01.987Z,6.50
2018-09-11T03:27:01.980Z,5.70
2018-09-11T03:28:01.971Z,6.50
2018-09-11T03:29:01.973Z,6.40
2018-09-11T03:30:01.982Z,6.10
2018-09-11T03:31:01.921Z,6.50
2018-09-11T03:32:01.954Z,6.60
2018-09-11T03:33:01.904Z,6.70
2018-09-11T03:34:01.894Z,7.00
2018-09-11T03:35:01.884Z,7.10
2018-09-11T03:36:01.869Z,6.60
2018-09-11T03:37:01.894Z,6.70
2018-09-11T03:38:01.844Z,7.40
2018-09-11T03:39:01.833Z,7.30
2018-09-11T03:40:01.830Z,6.90
2018-09-11T03:41:01.812Z,7.30
2018-09-11T03:42:01.837Z,7.00
2018-09-11T03:43:01.784Z,7.40
2018-09-11T03:44:01.812Z,7.50
2018-09-11T03:45:01.771Z,7.70
2018-09-11T03:46:01.756Z,7.30
2018-09-11T03:47:01.786Z,7.20
2018-09-11T03:48:01.732Z,7.20
2018-09-11T03:49:01.724Z,6.80
2018-09-11T03:50:01.716Z,7.10
2018-09-11T03:51:01.709Z,6.60
2018-09-11T03:52:01.738Z,7.30
2018-09-11T03:53:01.679Z,7.50
2018-09-11T03:54:01.674Z,7.60
2018-09-11T03:55:01.696Z,6.70
2018-09-11T03:56:01.650Z,7.20
2018-09-11T03:57:01.680Z,7.40
2018-09-11T03:58:01.628Z,7.30
2018-09-11T03:59:01.611Z,7.60
2018-09-11T04:00:01.607Z,7.30
2018-09-11T04:01:01.596Z,7.60
2018-09-11T04:02:01.629Z,7.60
2018-09-11T04:03:01.575Z,7.50
2018-09-11T04:04:01.577Z,8.00
2018-09-11T04:05:01.550Z,7.60
2018-09-11T04:06:01.543Z,7.60
2018-09-11T04:07:01.565Z,7.70
2018-09-11T04:08:01.520Z,7.90
2018-09-11T04:09:01.510Z,7.80
2018-09-11T04:10:01.530Z,8.60
2018-09-11T04:11:01.489Z,8.00
2018-09-11T04:12:01.484Z,8.10
2018-09-11T04:13:01.472Z,8.50
2018-09-11T04:14:01.460Z,8.40
2018-09-11T04:15:01.486Z,8.00
2018-09-11T04:16:01.446Z,8.90
2018-09-11T04:17:01.414Z,8.20
2018-09-11T04:18:01.406Z,8.20
2018-09-11T04:19:01.410Z,8.40
2018-09-11T04:20:01.422Z,8.40
2018-09-11T04:21:01.377Z,8.70
2018-09-11T04:22:01.364Z,8.60
2018-09-11T04:23:01.358Z,9.60
2018-09-11T04:24:01.377Z,9.20
2018-09-11T04:25:01.342Z,8.50
2018-09-11T04:26:01.362Z,8.80
2018-09-11T04:27:01.312Z,9.20
2018-09-11T04:28:01.312Z,8.80
2018-09-11T04:29:01.339Z,9.40
2018-09-11T04:30:01.288Z,9.80
2018-09-11T04:31:01.265Z,9.80
2018-09-11T04:32:01.258Z,9.70
2018-09-11T04:33:01.263Z,10.40
2018-09-11T04:34:01.267Z,9.50
2018-09-11T04:35:01.225Z,9.40
2018-09-11T04:36:01.204Z,10.50
2018-09-11T04:37:01.198Z,9.50
2018-09-11T04:38:01.175Z,9.30
2018-09-11T04:39:01.208Z,10.00
2018-09-11T04:40:01.164Z,9.90
2018-09-11T04:41:01.153Z,10.00
2018-09-11T04:42:01.137Z,9.40
2018-09-11T04:43:01.227Z,10.50
2018-09-11T04:44:01.142Z,10.10
2018-09-11T04:45:01.133Z,10.90
2018-09-11T04:46:01.088Z,10.70
2018-09-11T04:47:01.076Z,10.80
2018-09-11T04:48:01.061Z,10.50
2018-09-11T04:49:01.052Z,10.50
2018-09-11T04:50:01.070Z,11.40
2018-09-11T04:51:01.030Z,12.50
2018-09-11T04:52:01.023Z,11.30
2018-09-11T04:53:01.011Z,12.70
2018-09-11T04:54:00.998Z,13.60
2018-09-11T04:55:01.017Z,12.40
2018-09-11T04:56:01.000Z,11.30
2018-09-11T04:57:00.968Z,13.10
2018-09-11T04:58:00.949Z,12.40
2018-09-11T04:59:00.942Z,12.50
2018-09-11T05:00:00.974Z,14.10
2018-09-11T05:01:00.916Z,13.40
2018-09-11T05:02:00.908Z,12.90
2018-09-11T05:03:00.895Z,13.40
2018-09-11T05:04:00.885Z,14.60
2018-09-11T05:05:00.904Z,14.50
2018-09-11T05:06:00.910Z,12.90
2018-09-11T05:07:00.862Z,13.00
2018-09-11T05:08:00.850Z,12.10
2018-09-11T05:09:00.848Z,12.00
2018-09-11T05:10:00.830Z,12.10
2018-09-11T05:11:00.841Z,13.30
2018-09-11T05:12:00.806Z,13.40
2018-09-11T05:13:00.788Z,12.00
2018-09-11T05:14:00.788Z,13.50
2018-09-11T05:15:00.775Z,14.00
2018-09-11T05:16:00.817Z,13.10
2018-09-11T05:17:00.756Z,13.80
2018-09-11T05:18:00.732Z,14.10
2018-09-11T05:19:00.787Z,14.80
2018-09-11T05:20:00.715Z,15.50
2018-09-11T05:21:00.738Z,14.10
2018-09-11T05:22:00.686Z,14.40
2018-09-11T05:23:00.663Z,13.70
2018-09-11T05:24:00.663Z,13.80
2018-09-11T05:25:00.644Z,14.60
2018-09-11T05:26:00.674Z,17.30
2018-09-11T05:27:00.625Z,14.40
2018-09-11T05:28:00.612Z,15.90
2018-09-11T05:29:00.606Z,16.20
2018-09-11T05:30:00.595Z,15.90
2018-09-11T05:31:00.606Z,17.00
2018-09-11T05:32:00.571Z,18.10
2018-09-11T05:33:00.555Z,17.00
2018-09-11T05:34:00.548Z,16.10
2018-09-11T05:35:00.531Z,16.90
2018-09-11T05:36:00.558Z,16.10
2018-09-11T05:37:00.509Z,16.70
2018-09-11T05:38:00.512Z,17.70
2018-09-11T05:39:00.512Z,20.10
2018-09-11T05:40:00.488Z,18.90
2018-09-11T05:41:00.510Z,17.40
2018-09-11T05:42:00.499Z,17.60
2018-09-11T05:43:00.452Z,18.70
2018-09-11T05:44:00.446Z,18.90
2018-09-11T05:45:00.430Z,20.00
2018-09-11T05:46:00.428Z,20.70
2018-09-11T05:47:00.499Z,19.60
2018-09-11T05:48:00.396Z,20.20
2018-09-11T05:49:00.390Z,18.70
2018-09-11T05:50:00.375Z,17.90
2018-09-11T05:51:00.376Z,19.80
2018-09-11T05:52:00.392Z,20.00
2018-09-11T05:53:00.342Z,17.90
2018-09-11T05:54:00.331Z,18.90
2018-09-11T05:55:00.314Z,20.30
2018-09-11T05:56:00.308Z,20.90
2018-09-11T05:57:00.338Z,19.50
2018-09-11T05:58:00.285Z,19.00
2018-09-11T05:59:00.272Z,20.90
2018-09-11T06:00:00.258Z,18.10
2018-09-11T06:01:00.252Z,19.10
2018-09-11T06:02:00.274Z,20.90
2018-09-11T06:03:00.224Z,20.00
2018-09-11T06:04:00.236Z,20.40
2018-09-11T06:05:00.205Z,21.80
2018-09-11T06:06:00.200Z,20.00
2018-09-11T06:07:00.225Z,19.90
2018-09-11T06:08:00.180Z,19.10
2018-09-11T06:09:00.154Z,18.50
2018-09-11T06:10:00.145Z,19.90
2018-09-11T06:11:00.137Z,22.60
2018-09-11T06:12:00.157Z,20.70
2018-09-11T06:13:00.109Z,20.20
2018-09-11T06:14:00.089Z,22.00
2018-09-11T06:15:00.093Z,20.20
2018-09-11T06:16:00.077Z,19.80
2018-09-11T06:17:00.105Z,20.80
2018-09-11T06:18:00.053Z,21.20
2018-09-11T06:19:00.043Z,20.80
2018-09-11T06:20:00.027Z,19.50
2018-09-11T06:21:00.018Z,19.80
2018-09-11T06:22:00.047Z,21.30
2018-09-11T06:22:59.997Z,23.30
2018-09-11T06:23:59.983Z,23.10
2018-09-11T06:24:59.973Z,22.20
2018-09-11T06:25:59.962Z,25.10
2018-09-11T06:26:59.995Z,21.70
2018-09-11T06:27:59.935Z,22.20
2018-09-11T06:28:59.927Z,21.30
2018-09-11T06:29:59.917Z,22.10
2018-09-11T06:30:59.915Z,22.10
2018-09-11T06:31:59.929Z,22.00
2018-09-11T06:32:59.893Z,20.90
2018-09-11T06:33:59.869Z,21.30
2018-09-11T06:34:59.893Z,24.90
2018-09-11T06:35:59.847Z,21.20
2018-09-11T06:36:59.839Z,19.70
2018-09-11T06:37:59.827Z,20.30
2018-09-11T06:38:59.811Z,19.90
2018-09-11T06:39:59.837Z,20.80
2018-09-11T06:40:59.796Z,23.50
2018-09-11T06:41:59.791Z,21.80
2018-09-11T06:42:59.782Z,22.40
2018-09-11T06:43:59.770Z,21.20
2018-09-11T06:44:59.806Z,22.10
2018-09-11T06:45:59.745Z,21.10
2018-09-11T06:46:59.764Z,21.40
2018-09-11T06:47:59.723Z,20.60
2018-09-11T06:48:59.712Z,19.40
2018-09-11T06:49:59.750Z,20.70
2018-09-11T06:50:59.697Z,19.60
2018-09-11T06:51:59.672Z,20.80
2018-09-11T06:52:59.680Z,20.60
2018-09-11T06:53:59.651Z,20.90
2018-09-11T06:54:59.671Z,21.00
2018-09-11T06:55:59.653Z,21.40
2018-09-11T06:56:59.620Z,20.10
2018-09-11T06:57:59.645Z,23.00
2018-09-11T06:58:59.724Z,20.20
2018-09-11T06:59:59.592Z,19.90
2018-09-11T07:00:59.640Z,20.30
2018-09-11T07:01:59.672Z,20.30
2018-09-11T07:02:59.607Z,19.30
2018-09-11T07:03:59.541Z,21.00
2018-09-11T07:04:59.530Z,19.40
2018-09-11T07:05:59.522Z,19.10
2018-09-11T07:06:59.524Z,18.90
2018-09-11T07:07:59.547Z,19.20
2018-09-11T07:08:59.486Z,20.40
2018-09-11T07:09:59.475Z,18.70
2018-09-11T07:10:59.466Z,18.60
2018-09-11T07:11:59.454Z,19.00
2018-09-11T07:12:59.549Z,18.70
2018-09-11T07:13:59.430Z,19.00
2018-09-11T07:14:59.413Z,19.90
2018-09-11T07:15:59.397Z,19.10
2018-09-11T07:16:59.387Z,19.80
2018-09-11T07:17:59.421Z,20.10
2018-09-11T07:18:59.366Z,19.60
2018-09-11T07:19:59.586Z,20.50
2018-09-11T07:20:59.344Z,19.30
2018-09-11T07:21:59.337Z,19.70
2018-09-11T07:22:59.358Z,20.20
2018-09-11T07:23:59.345Z,19.00
2018-09-11T07:24:59.301Z,20.80
2018-09-11T07:25:59.317Z,20.50
2018-09-11T07:26:59.532Z,19.50
2018-09-11T07:27:59.311Z,21.30
2018-09-11T07:28:59.333Z,19.30
2018-09-11T07:29:59.248Z,19.00
2018-09-11T07:30:59.238Z,20.50
2018-09-11T07:31:59.235Z,20.50
2018-09-11T07:32:59.220Z,19.90
2018-09-11T07:33:59.245Z,20.90
2018-09-11T07:34:59.200Z,18.60
2018-09-11T07:35:59.182Z,20.30
2018-09-11T07:36:59.180Z,20.40
2018-09-11T07:37:59.217Z,18.10
2018-09-11T07:38:59.183Z,18.90
2018-09-11T07:39:59.180Z,21.00
2018-09-11T07:40:59.128Z,19.20
2018-09-11T07:41:59.120Z,18.80
2018-09-11T07:42:59.103Z,19.90
2018-09-11T07:43:59.098Z,19.50
2018-09-11T07:44:59.112Z,19.10
2018-09-11T07:45:59.065Z,19.20
2018-09-11T07:46:59.055Z,20.70
2018-09-11T07:47:59.046Z,19.80
2018-09-11T07:48:59.109Z,19.70
2018-09-11T07:49:59.015Z,18.10
2018-09-11T07:50:59.009Z,17.90
2018-09-11T07:51:58.995Z,20.90
2018-09-11T07:52:59.095Z,19.80
2018-09-11T07:53:59.018Z,20.20
2018-09-11T07:54:58.965Z,19.60
2018-09-11T07:55:58.949Z,18.30
2018-09-11T07:56:58.943Z,19.20
2018-09-11T07:57:58.938Z,17.40
2018-09-11T07:58:58.959Z,17.80
2018-09-11T07:59:58.906Z,17.90
2018-09-11T08:00:58.893Z,17.80
2018-09-11T08:01:58.880Z,16.90
2018-09-11T08:02:58.901Z,17.20
2018-09-11T08:03:58.891Z,16.30
2018-09-11T08:04:58.843Z,15.10
2018-09-11T08:05:58.843Z,15.50
2018-09-11T08:06:58.833Z,16.50
2018-09-11T08:07:58.813Z,15.70
2018-09-11T08:08:58.840Z,15.60
2018-09-11T08:09:58.792Z,16.40
2018-09-11T08:10:58.777Z,14.60
2018-09-11T08:11:58.838Z,16.20
2018-09-11T08:12:58.760Z,15.00
2018-09-11T08:13:58.777Z,14.70
2018-09-11T08:14:58.735Z,15.80
2018-09-11T08:15:58.727Z,15.50
2018-09-11T08:16:58.715Z,16.20
2018-09-11T08:17:58.712Z,15.80
2018-09-11T08:18:58.742Z,15.10
2018-09-11T08:19:58.726Z,14.60
2018-09-11T08:20:58.688Z,14.30
2018-09-11T08:21:58.684Z,15.70
2018-09-11T08:22:58.654Z,15.30
2018-09-11T08:23:58.692Z,14.50
2018-09-11T08:24:58.639Z,13.60
2018-09-11T08:25:58.623Z,14.80
2018-09-11T08:26:58.616Z,14.40
2018-09-11T08:27:58.594Z,14.30
2018-09-11T08:28:59.076Z,14.50
2018-09-11T08:29:58.577Z,15.10
2018-09-11T08:30:58.572Z,15.00
2018-09-11T08:31:58.556Z,15.40
2018-09-11T08:32:58.546Z,14.60
2018-09-11T08:33:58.673Z,13.90
2018-09-11T08:34:58.524Z,14.30
2018-09-11T08:35:58.512Z,14.70
2018-09-11T08:36:58.494Z,14.40
2018-09-11T08:37:58.490Z,14.20
2018-09-11T08:38:58.508Z,14.10
2018-09-11T08:39:58.504Z,15.00
2018-09-11T08:40:58.483Z,14.50
2018-09-11T08:41:58.446Z,13.30
2018-09-11T08:42:58.446Z,14.80
2018-09-11T08:43:58.450Z,14.70
2018-09-11T08:44:58.412Z,14.50
2018-09-11T08:45:58.400Z,14.30
2018-09-11T08:46:58.388Z,12.70
2018-09-11T08:47:58.383Z,12.90
2018-09-11T08:48:58.399Z,12.60
2018-09-11T08:49:58.349Z,12.90
2018-09-11T08:50:58.335Z,13.50
2018-09-11T08:51:58.334Z,13.60
2018-09-11T08:52:58.310Z,12.80
2018-09-11T08:53:58.337Z,12.60
2018-09-11T08:54:58.328Z,12.60
2018-09-11T08:55:58.275Z,12.40
2018-09-11T08:56:58.273Z,12.90
2018-09-11T08:57:58.258Z,11.40
2018-09-11T08:58:58.243Z,12.30
2018-09-11T08:59:58.276Z,11.30
2018-09-11T09:00:58.222Z,11.60
2018-09-11T09:01:58.218Z,12.00
2018-09-11T09:02:58.196Z,11.60
2018-09-11T09:03:58.192Z,11.50
2018-09-11T09:04:58.212Z,11.60
2018-09-11T09:05:58.169Z,11.70
2018-09-11T09:06:58.165Z,11.20
2018-09-11T09:07:58.144Z,11.70
2018-09-11T09:08:58.144Z,11.60
2018-09-11T09:09:58.235Z,10.70
2018-09-11T09:10:58.116Z,10.90
2018-09-11T09:11:58.108Z,10.70
2018-09-11T09:12:58.089Z,10.90
2018-09-11T09:13:58.077Z,10.90
2018-09-11T09:14:58.116Z,11.20
2018-09-11T09:15:58.050Z,10.60
2018-09-11T09:16:58.046Z,10.80
2018-09-11T09:17:58.034Z,10.60
2018-09-11T09:18:58.026Z,10.30
2018-09-11T09:19:58.044Z,10.30
2018-09-11T09:20:58.074Z,9.60
2018-09-11T09:21:57.994Z,10.00
2018-09-11T09:22:58.028Z,8.90
2018-09-11T09:23:57.978Z,9.30
2018-09-11T09:24:57.960Z,9.10
2018-09-11T09:25:57.954Z,8.90
2018-09-11T09:26:57.944Z,9.00
2018-09-11T09:27:57.972Z,8.80
2018-09-11T09:28:57.927Z,9.50
2018-09-11T09:29:57.908Z,9.00
2018-09-11T09:30:57.901Z,9.20
2018-09-11T09:31:57.904Z,9.10
2018-09-11T09:32:57.908Z,8.70
2018-09-11T09:33:57.862Z,8.80
2018-09-11T09:34:57.854Z,8.80
2018-09-11T09:35:57.879Z,8.10
2018-09-11T09:36:57.850Z,8.90
2018-09-11T09:37:57.851Z,8.90
2018-09-11T09:38:57.816Z,8.50
2018-09-11T09:39:57.795Z,9.00
2018-09-11T09:40:57.794Z,8.50
2018-09-11T09:41:57.810Z,9.00
2018-09-11T09:42:57.766Z,8.80
2018-09-11T09:43:57.820Z,8.20
2018-09-11T09:44:57.738Z,8.80
2018-09-11T09:45:57.734Z,8.70
2018-09-11T09:46:57.763Z,8.80
2018-09-11T09:47:57.746Z,7.80
2018-09-11T09:48:57.708Z,8.80
2018-09-11T09:49:57.700Z,8.70
2018-09-11T09:50:57.762Z,9.00
2018-09-11T09:51:57.700Z,9.10
2018-09-11T09:52:57.653Z,9.60
2018-09-11T09:53:57.639Z,8.90
2018-09-11T09:54:57.621Z,9.10
2018-09-11T09:55:57.659Z,9.50
2018-09-11T09:56:57.631Z,9.50
2018-09-11T09:57:57.848Z,9.30
2018-09-11T09:58:57.581Z,9.60
2018-09-11T09:59:57.669Z,9.10
2018-09-11T10:00:57.987Z,9.60
2018-09-11T10:01:57.578Z,8.70
2018-09-11T10:02:57.529Z,8.90
2018-09-11T10:03:57.987Z,9.00
2018-09-11T10:04:57.980Z,9.20
2018-09-11T10:05:57.505Z,8.50
2018-09-11T10:06:57.944Z,8.70
2018-09-11T10:07:57.519Z,8.70
2018-09-11T10:08:57.579Z,8.50
2018-09-11T10:09:57.456Z,8.60
2018-09-11T10:10:58.359Z,8.70
2018-09-11T10:11:57.810Z,8.90
2018-09-11T10:12:57.759Z,8.50
2018-09-11T10:13:57.837Z,9.20
2018-09-11T10:14:57.845Z,8.50
2018-09-11T10:15:57.803Z,9.00
2018-09-11T10:16:57.429Z,8.30
2018-09-11T10:17:57.791Z,8.90
2018-09-11T10:18:57.383Z,8.30
2018-09-11T10:19:57.753Z,8.10
2018-09-11T10:20:57.331Z,8.50
2018-09-11T10:21:57.358Z,8.40
2018-09-11T10:22:57.309Z,8.10
2018-09-11T10:23:57.303Z,8.00
2018-09-11T10:24:57.349Z,8.20
2018-09-11T10:25:57.317Z,8.40
2018-09-11T10:26:57.317Z,8.40
2018-09-11T10:27:57.317Z,8.50
2018-09-11T10:28:57.248Z,8.00
2018-09-11T10:29:57.247Z,8.00
2018-09-11T10:30:57.271Z,8.10
2018-09-11T10:31:57.251Z,7.60
2018-09-11T10:32:57.207Z,7.80
2018-09-11T10:33:57.216Z,7.70
2018-09-11T10:34:57.234Z,7.60
2018-09-11T10:35:57.174Z,8.00
2018-09-11T10:36:57.165Z,7.20
2018-09-11T10:37:57.163Z,7.00
2018-09-11T10:38:57.139Z,7.00
2018-09-11T10:39:57.224Z,6.40
2018-09-11T10:40:57.159Z,6.30
2018-09-11T10:41:57.112Z,5.90
2018-09-11T10:42:57.128Z,6.00
2018-09-11T10:43:57.116Z,6.60
2018-09-11T10:44:57.152Z,6.40
2018-09-11T10:45:57.067Z,6.40
2018-09-11T10:46:57.086Z,6.10
2018-09-11T10:47:57.047Z,5.10
2018-09-11T10:48:57.201Z,5.60
2018-09-11T10:49:57.038Z,5.40
2018-09-11T10:50:57.042Z,5.40
2018-09-11T10:51:57.130Z,5.00
2018-09-11T10:52:57.016Z,5.10
2018-09-11T10:53:57.011Z,4.70
2018-09-11T10:54:57.006Z,5.10
2018-09-11T10:55:56.983Z,4.70
2018-09-11T10:56:56.956Z,4.60
2018-09-11T10:57:56.930Z,4.90
2018-09-11T10:58:56.947Z,4.90
2018-09-11T10:59:56.910Z,4.50
2018-09-11T11:00:56.892Z,5.00
2018-09-11T11:01:56.875Z,4.70
2018-09-11T11:02:56.861Z,4.70
2018-09-11T11:03:56.892Z,4.70
2018-09-11T11:04:56.847Z,4.60
2018-09-11T11:05:56.825Z,4.70
2018-09-11T11:06:56.850Z,4.10
2018-09-11T11:07:56.806Z,4.70
2018-09-11T11:08:56.790Z,4.70
2018-09-11T11:09:56.826Z,4.30
2018-09-11T11:10:56.776Z,3.90
2018-09-11T11:11:56.759Z,4.20
2018-09-11T11:12:56.747Z,4.50
2018-09-11T11:13:56.745Z,4.30
2018-09-11T11:14:56.757Z,4.40
2018-09-11T11:15:56.714Z,4.20
2018-09-11T11:16:56.736Z,4.40
2018-09-11T11:17:56.747Z,4.40
2018-09-11T11:18:56.696Z,4.30
2018-09-11T11:19:56.675Z,4.20
2018-09-11T11:20:56.663Z,4.50
2018-09-11T11:21:56.648Z,4.40
2018-09-11T11:22:56.667Z,4.30
2018-09-11T11:23:56.619Z,4.50
2018-09-11T11:24:56.619Z,4.20
2018-09-11T11:25:56.600Z,4.40
2018-09-11T11:26:56.672Z,4.10
2018-09-11T11:27:56.576Z,4.10
2018-09-11T11:28:56.605Z,4.30
2018-09-11T11:29:56.568Z,4.10
2018-09-11T11:30:56.556Z,3.90
2018-09-11T11:31:56.576Z,4.20
2018-09-11T11:32:56.567Z,4.00
2018-09-11T11:33:56.530Z,3.60
2018-09-11T11:34:56.514Z,3.70
2018-09-11T11:35:56.582Z,3.90
2018-09-11T11:36:56.630Z,3.70
2018-09-11T11:37:56.510Z,3.80
2018-09-11T11:38:56.479Z,3.80
2018-09-11T11:39:56.452Z,3.50
2018-09-11T11:40:56.450Z,3.60
2018-09-11T11:41:56.548Z,3.60
2018-09-11T11:42:56.464Z,3.60
2018-09-11T11:43:56.424Z,3.70
2018-09-11T11:44:56.401Z,3.50
2018-09-11T11:45:56.403Z,3.90
2018-09-11T11:46:56.372Z,3.50
2018-09-11T11:47:56.403Z,3.60
2018-09-11T11:48:56.471Z,3.50
2018-09-11T11:49:56.369Z,3.40
2018-09-11T11:50:56.365Z,3.30
2018-09-11T11:51:56.313Z,3.50
2018-09-11T11:52:56.349Z,3.60
2018-09-11T11:53:56.299Z,3.40
2018-09-11T11:54:56.394Z,3.40
2018-09-11T11:55:56.285Z,3.70
2018-09-11T11:56:56.275Z,3.30
2018-09-11T11:57:56.287Z,3.40
2018-09-11T11:58:56.265Z,3.50
2018-09-11T11:59:56.263Z,3.60
2018-09-11T12:00:56.229Z,3.50
2018-09-11T12:01:56.280Z,3.80
2018-09-11T12:02:56.197Z,3.70
2018-09-11T12:03:56.189Z,3.70
2018-09-11T12:04:56.213Z,3.40
2018-09-11T12:05:56.193Z,3.80
2018-09-11T12:06:56.156Z,3.90
2018-09-11T12:07:56.172Z,3.40
2018-09-11T12:08:56.233Z,3.50
2018-09-11T12:09:56.163Z,3.20
2018-09-11T12:10:56.123Z,3.90
2018-09-11T12:11:56.117Z,3.60
2018-09-11T12:12:56.093Z,3.70
2018-09-11T12:13:56.094Z,3.50
2018-09-11T12:14:56.106Z,3.40
2018-09-11T12:15:56.067Z,3.60
2018-09-11T12:16:56.086Z,3.80
2018-09-11T12:17:56.060Z,3.90
2018-09-11T12:18:56.029Z,3.60
2018-09-11T12:19:56.057Z,3.50
2018-09-11T12:20:56.001Z,3.30
2018-09-11T12:21:55.985Z,3.90
2018-09-11T12:22:55.974Z,3.50
2018-09-11T12:23:55.967Z,4.20
2018-09-11T12:24:56.001Z,3.60
2018-09-11T12:25:55.988Z,3.70
2018-09-11T12:26:55.935Z,3.60
2018-09-11T12:27:55.924Z,3.40
2018-09-11T12:28:55.934Z,3.30
2018-09-11T12:29:55.912Z,3.50
2018-09-11T12:30:55.952Z,3.50
2018-09-11T12:31:55.871Z,3.40
2018-09-11T12:32:55.865Z,3.50
2018-09-11T12:33:55.846Z,3.50
2018-09-11T12:34:55.834Z,3.20
2018-09-11T12:35:55.865Z,3.20
2018-09-11T12:36:55.805Z,3.70
2018-09-11T12:37:55.798Z,3.40
2018-09-11T12:38:55.794Z,3.50
2018-09-11T12:39:55.774Z,3.40
2018-09-11T12:40:55.813Z,3.40
2018-09-11T12:41:55.766Z,3.60
2018-09-11T12:42:55.748Z,3.30
2018-09-11T12:43:55.741Z,3.40
2018-09-11T12:44:55.715Z,3.30
2018-09-11T12:45:55.779Z,3.50
2018-09-11T12:46:55.896Z,3.20
2018-09-11T12:47:55.875Z,3.50
2018-09-11T12:48:55.672Z,3.00
2018-09-11T12:49:56.386Z,2.80
2018-09-11T12:50:55.666Z,3.20
2018-09-11T12:51:55.680Z,3.40
2018-09-11T12:52:55.640Z,3.40
2018-09-11T12:53:55.641Z,2.90
2018-09-11T12:54:55.611Z,3.30
2018-09-11T12:55:55.652Z,3.40
2018-09-11T12:56:55.597Z,3.10
2018-09-11T12:57:55.576Z,3.60
2018-09-11T12:58:55.575Z,3.30
2018-09-11T12:59:55.561Z,3.10
2018-09-11T13:00:55.593Z,3.30
2018-09-11T13:01:55.535Z,3.10
2018-09-11T13:02:55.520Z,3.30
2018-09-11T13:03:55.510Z,3.20
2018-09-11T13:04:55.510Z,3.40
2018-09-11T13:05:55.546Z,4.20
2018-09-11T13:06:55.496Z,4.10
2018-09-11T13:07:55.476Z,4.50
2018-09-11T13:08:55.492Z,3.80